sensor_id;sensor_type;location;lat;lon;timestamp;P1;durP1;ratioP1;P2;durP2;ratioP2
66256;SDS011;53049;43.446;3.698;2023-06-10T00:00:12;28.25;;;11.05;;
66256;SDS011;53049;43.446;3.698;2023-06-10T00:02:40;22.38;;;11.80;;
66256;SDS011;53049;43.446;3.698;2023-06-10T00:05:06;27.15;;;11.32;;
66256;SDS011;53049;43.446;3.698;2023-06-10T00:07:33;23.63;;;11.25;;
66256;SDS011;53049;43.446;3.698;2023-06-10T00:10:03;23.15;;;10.60;;
66256;SDS011;53049;43.446;3.698;2023-06-10T00:12:32;20.40;;;10.32;;
66256;SDS011;53049;43.446;3.698;2023-06-10T00:15:02;17.10;;;10.25;;
66256;SDS011;53049;43.446;3.698;2023-06-10T00:17:29;23.70;;;11.07;;
66256;SDS011;53049;43.446;3.698;2023-06-10T00:19:55;25.50;;;11.25;;
66256;SDS011;53049;43.446;3.698;2023-06-10T00:22:22;17.13;;;10.48;;
66256;SDS011;53049;43.446;3.698;2023-06-10T00:24:49;21.83;;;10.70;;
66256;SDS011;53049;43.446;3.698;2023-06-10T00:27:15;19.23;;;10.40;;
66256;SDS011;53049;43.446;3.698;2023-06-10T00:29:41;21.60;;;10.45;;
66256;SDS011;53049;43.446;3.698;2023-06-10T00:32:07;20.02;;;9.40;;
66256;SDS011;53049;43.446;3.698;2023-06-10T00:34:33;18.90;;;10.07;;
66256;SDS011;53049;43.446;3.698;2023-06-10T00:36:58;20.30;;;10.10;;
66256;SDS011;53049;43.446;3.698;2023-06-10T00:39:25;17.98;;;10.13;;
66256;SDS011;53049;43.446;3.698;2023-06-10T00:41:51;17.33;;;9.73;;
66256;SDS011;53049;43.446;3.698;2023-06-10T00:44:16;17.92;;;9.50;;
66256;SDS011;53049;43.446;3.698;2023-06-10T00:46:42;18.63;;;9.80;;
66256;SDS011;53049;43.446;3.698;2023-06-10T00:49:08;19.95;;;9.27;;
66256;SDS011;53049;43.446;3.698;2023-06-10T00:51:34;19.58;;;9.45;;
66256;SDS011;53049;43.446;3.698;2023-06-10T00:54:01;21.48;;;9.23;;
66256;SDS011;53049;43.446;3.698;2023-06-10T00:56:28;22.67;;;10.05;;
66256;SDS011;53049;43.446;3.698;2023-06-10T00:58:53;18.75;;;9.15;;
66256;SDS011;53049;43.446;3.698;2023-06-10T01:01:19;16.65;;;9.30;;
66256;SDS011;53049;43.446;3.698;2023-06-10T01:03:46;21.63;;;9.95;;
66256;SDS011;53049;43.446;3.698;2023-06-10T01:06:19;19.20;;;10.13;;
66256;SDS011;53049;43.446;3.698;2023-06-10T01:11:46;17.33;;;9.98;;
66256;SDS011;53049;43.446;3.698;2023-06-10T01:14:17;15.45;;;9.55;;
66256;SDS011;53049;43.446;3.698;2023-06-10T01:16:43;20.92;;;10.90;;
66256;SDS011;53049;43.446;3.698;2023-06-10T01:19:11;20.98;;;10.25;;
66256;SDS011;53049;43.446;3.698;2023-06-10T01:21:38;23.83;;;10.95;;
66256;SDS011;53049;43.446;3.698;2023-06-10T01:24:04;20.70;;;10.80;;
66256;SDS011;53049;43.446;3.698;2023-06-10T01:26:33;21.52;;;11.00;;
66256;SDS011;53049;43.446;3.698;2023-06-10T01:29:07;17.88;;;10.20;;
66256;SDS011;53049;43.446;3.698;2023-06-10T01:31:49;19.58;;;11.00;;
66256;SDS011;53049;43.446;3.698;2023-06-10T01:34:17;19.23;;;11.18;;
66256;SDS011;53049;43.446;3.698;2023-06-10T01:36:47;24.52;;;12.23;;
66256;SDS011;53049;43.446;3.698;2023-06-10T01:39:14;21.83;;;11.10;;
66256;SDS011;53049;43.446;3.698;2023-06-10T01:41:42;25.33;;;11.73;;
66256;SDS011;53049;43.446;3.698;2023-06-10T01:44:08;22.00;;;11.07;;
66256;SDS011;53049;43.446;3.698;2023-06-10T01:46:34;25.17;;;11.38;;
66256;SDS011;53049;43.446;3.698;2023-06-10T01:49:00;18.83;;;10.60;;
66256;SDS011;53049;43.446;3.698;2023-06-10T01:51:26;20.90;;;11.45;;
66256;SDS011;53049;43.446;3.698;2023-06-10T01:53:51;22.25;;;11.48;;
66256;SDS011;53049;43.446;3.698;2023-06-10T01:56:17;21.50;;;12.13;;
66256;SDS011;53049;43.446;3.698;2023-06-10T01:58:44;19.02;;;12.40;;
66256;SDS011;53049;43.446;3.698;2023-06-10T02:01:10;22.58;;;11.60;;
66256;SDS011;53049;43.446;3.698;2023-06-10T02:03:36;24.98;;;12.15;;
66256;SDS011;53049;43.446;3.698;2023-06-10T02:06:02;21.23;;;11.65;;
66256;SDS011;53049;43.446;3.698;2023-06-10T02:08:27;22.02;;;11.65;;
66256;SDS011;53049;43.446;3.698;2023-06-10T02:10:53;20.25;;;11.80;;
66256;SDS011;53049;43.446;3.698;2023-06-10T02:13:19;18.60;;;11.50;;
66256;SDS011;53049;43.446;3.698;2023-06-10T02:15:45;26.65;;;12.10;;
66256;SDS011;53049;43.446;3.698;2023-06-10T02:18:11;19.25;;;11.25;;
66256;SDS011;53049;43.446;3.698;2023-06-10T02:20:37;23.67;;;12.05;;
66256;SDS011;53049;43.446;3.698;2023-06-10T02:23:03;19.30;;;12.02;;
66256;SDS011;53049;43.446;3.698;2023-06-10T02:25:29;22.30;;;12.45;;
66256;SDS011;53049;43.446;3.698;2023-06-10T02:27:55;19.90;;;11.25;;
66256;SDS011;53049;43.446;3.698;2023-06-10T02:30:20;21.45;;;12.18;;
66256;SDS011;53049;43.446;3.698;2023-06-10T02:32:46;20.55;;;12.02;;
66256;SDS011;53049;43.446;3.698;2023-06-10T02:35:12;24.50;;;12.57;;
66256;SDS011;53049;43.446;3.698;2023-06-10T02:37:42;20.80;;;12.50;;
66256;SDS011;53049;43.446;3.698;2023-06-10T02:40:08;21.77;;;12.07;;
66256;SDS011;53049;43.446;3.698;2023-06-10T02:42:34;20.00;;;11.80;;
66256;SDS011;53049;43.446;3.698;2023-06-10T02:45:00;19.60;;;11.57;;
66256;SDS011;53049;43.446;3.698;2023-06-10T02:47:25;23.55;;;12.27;;
66256;SDS011;53049;43.446;3.698;2023-06-10T02:49:51;23.95;;;12.23;;
66256;SDS011;53049;43.446;3.698;2023-06-10T02:52:17;24.13;;;12.30;;
66256;SDS011;53049;43.446;3.698;2023-06-10T02:54:42;23.05;;;12.10;;
66256;SDS011;53049;43.446;3.698;2023-06-10T02:57:08;24.42;;;12.68;;
66256;SDS011;53049;43.446;3.698;2023-06-10T02:59:35;21.00;;;11.75;;
66256;SDS011;53049;43.446;3.698;2023-06-10T03:02:01;19.27;;;11.82;;
66256;SDS011;53049;43.446;3.698;2023-06-10T03:04:26;23.77;;;12.35;;
66256;SDS011;53049;43.446;3.698;2023-06-10T03:06:54;20.02;;;11.65;;
66256;SDS011;53049;43.446;3.698;2023-06-10T03:09:19;21.08;;;11.77;;
66256;SDS011;53049;43.446;3.698;2023-06-10T03:11:45;25.25;;;11.88;;
66256;SDS011;53049;43.446;3.698;2023-06-10T03:14:11;20.08;;;12.35;;
66256;SDS011;53049;43.446;3.698;2023-06-10T03:16:37;16.92;;;11.27;;
66256;SDS011;53049;43.446;3.698;2023-06-10T03:19:05;18.90;;;11.70;;
66256;SDS011;53049;43.446;3.698;2023-06-10T03:21:32;20.45;;;11.98;;
66256;SDS011;53049;43.446;3.698;2023-06-10T03:23:59;20.17;;;11.88;;
66256;SDS011;53049;43.446;3.698;2023-06-10T03:26:25;23.13;;;11.85;;
66256;SDS011;53049;43.446;3.698;2023-06-10T03:28:52;20.15;;;11.63;;
66256;SDS011;53049;43.446;3.698;2023-06-10T03:31:18;21.88;;;11.30;;
66256;SDS011;53049;43.446;3.698;2023-06-10T03:33:44;21.05;;;12.27;;
66256;SDS011;53049;43.446;3.698;2023-06-10T03:36:09;25.17;;;12.15;;
66256;SDS011;53049;43.446;3.698;2023-06-10T03:38:35;19.23;;;11.65;;
66256;SDS011;53049;43.446;3.698;2023-06-10T03:41:01;22.20;;;12.05;;
66256;SDS011;53049;43.446;3.698;2023-06-10T03:43:27;19.88;;;11.75;;
66256;SDS011;53049;43.446;3.698;2023-06-10T03:45:53;17.77;;;11.82;;
66256;SDS011;53049;43.446;3.698;2023-06-10T03:48:18;18.25;;;11.50;;
66256;SDS011;53049;43.446;3.698;2023-06-10T03:50:44;19.50;;;12.00;;
66256;SDS011;53049;43.446;3.698;2023-06-10T03:53:12;20.75;;;12.13;;
66256;SDS011;53049;43.446;3.698;2023-06-10T03:55:38;22.83;;;12.43;;
66256;SDS011;53049;43.446;3.698;2023-06-10T03:58:03;27.80;;;14.10;;
66256;SDS011;53049;43.446;3.698;2023-06-10T04:00:29;24.45;;;14.00;;
66256;SDS011;53049;43.446;3.698;2023-06-10T04:03:07;23.05;;;13.93;;
66256;SDS011;53049;43.446;3.698;2023-06-10T04:05:34;23.33;;;15.43;;
66256;SDS011;53049;43.446;3.698;2023-06-10T04:08:00;24.52;;;14.80;;
66256;SDS011;53049;43.446;3.698;2023-06-10T04:10:26;28.92;;;14.60;;
66256;SDS011;53049;43.446;3.698;2023-06-10T04:12:52;23.85;;;13.82;;
66256;SDS011;53049;43.446;3.698;2023-06-10T04:15:18;24.50;;;14.35;;
66256;SDS011;53049;43.446;3.698;2023-06-10T04:17:44;23.20;;;14.43;;
66256;SDS011;53049;43.446;3.698;2023-06-10T04:20:10;26.65;;;14.25;;
66256;SDS011;53049;43.446;3.698;2023-06-10T04:22:36;23.40;;;14.15;;
66256;SDS011;53049;43.446;3.698;2023-06-10T04:25:02;27.77;;;14.32;;
66256;SDS011;53049;43.446;3.698;2023-06-10T04:27:28;24.02;;;14.88;;
66256;SDS011;53049;43.446;3.698;2023-06-10T04:29:54;24.40;;;14.48;;
66256;SDS011;53049;43.446;3.698;2023-06-10T04:32:19;30.42;;;14.52;;
66256;SDS011;53049;43.446;3.698;2023-06-10T04:34:45;26.05;;;14.50;;
66256;SDS011;53049;43.446;3.698;2023-06-10T04:37:11;23.90;;;13.25;;
66256;SDS011;53049;43.446;3.698;2023-06-10T04:39:36;22.65;;;13.48;;
66256;SDS011;53049;43.446;3.698;2023-06-10T04:42:02;18.80;;;12.25;;
66256;SDS011;53049;43.446;3.698;2023-06-10T04:44:28;22.80;;;13.30;;
66256;SDS011;53049;43.446;3.698;2023-06-10T04:46:54;26.88;;;13.23;;
66256;SDS011;53049;43.446;3.698;2023-06-10T04:49:20;24.38;;;12.85;;
66256;SDS011;53049;43.446;3.698;2023-06-10T04:51:46;19.00;;;12.18;;
66256;SDS011;53049;43.446;3.698;2023-06-10T04:54:12;22.77;;;12.50;;
66256;SDS011;53049;43.446;3.698;2023-06-10T04:56:37;18.88;;;12.48;;
66256;SDS011;53049;43.446;3.698;2023-06-10T04:59:04;18.40;;;11.02;;
66256;SDS011;53049;43.446;3.698;2023-06-10T05:01:29;17.50;;;11.48;;
66256;SDS011;53049;43.446;3.698;2023-06-10T05:03:55;19.38;;;11.25;;
66256;SDS011;53049;43.446;3.698;2023-06-10T05:06:21;21.00;;;11.75;;
66256;SDS011;53049;43.446;3.698;2023-06-10T05:08:46;17.30;;;10.90;;
66256;SDS011;53049;43.446;3.698;2023-06-10T05:11:12;22.45;;;11.63;;
66256;SDS011;53049;43.446;3.698;2023-06-10T05:13:38;21.67;;;11.00;;
66256;SDS011;53049;43.446;3.698;2023-06-10T05:16:05;16.48;;;10.70;;
66256;SDS011;53049;43.446;3.698;2023-06-10T05:18:33;15.57;;;10.82;;
66256;SDS011;53049;43.446;3.698;2023-06-10T05:20:59;16.48;;;11.25;;
66256;SDS011;53049;43.446;3.698;2023-06-10T05:23:24;15.98;;;11.10;;
66256;SDS011;53049;43.446;3.698;2023-06-10T05:25:50;16.27;;;10.55;;
66256;SDS011;53049;43.446;3.698;2023-06-10T05:28:15;21.67;;;10.95;;
66256;SDS011;53049;43.446;3.698;2023-06-10T05:30:41;17.25;;;10.20;;
66256;SDS011;53049;43.446;3.698;2023-06-10T05:33:07;16.42;;;10.45;;
66256;SDS011;53049;43.446;3.698;2023-06-10T05:35:32;15.27;;;9.82;;
66256;SDS011;53049;43.446;3.698;2023-06-10T05:37:58;17.58;;;9.65;;
66256;SDS011;53049;43.446;3.698;2023-06-10T05:40:24;16.92;;;10.75;;
66256;SDS011;53049;43.446;3.698;2023-06-10T05:42:49;16.98;;;9.40;;
66256;SDS011;53049;43.446;3.698;2023-06-10T05:45:16;15.40;;;10.43;;
66256;SDS011;53049;43.446;3.698;2023-06-10T05:47:41;14.82;;;9.13;;
66256;SDS011;53049;43.446;3.698;2023-06-10T05:50:07;14.88;;;8.70;;
66256;SDS011;53049;43.446;3.698;2023-06-10T05:52:34;14.13;;;9.30;;
66256;SDS011;53049;43.446;3.698;2023-06-10T05:55:00;14.98;;;8.82;;
66256;SDS011;53049;43.446;3.698;2023-06-10T05:57:27;16.92;;;8.75;;
66256;SDS011;53049;43.446;3.698;2023-06-10T05:59:52;14.90;;;8.75;;
66256;SDS011;53049;43.446;3.698;2023-06-10T06:02:18;12.70;;;8.48;;
66256;SDS011;53049;43.446;3.698;2023-06-10T06:04:44;12.00;;;7.38;;
66256;SDS011;53049;43.446;3.698;2023-06-10T06:07:09;9.55;;;7.25;;
66256;SDS011;53049;43.446;3.698;2023-06-10T06:09:35;15.57;;;7.57;;
66256;SDS011;53049;43.446;3.698;2023-06-10T06:12:01;13.35;;;7.57;;
66256;SDS011;53049;43.446;3.698;2023-06-10T06:14:26;10.05;;;7.07;;
66256;SDS011;53049;43.446;3.698;2023-06-10T06:16:55;11.98;;;7.65;;
66256;SDS011;53049;43.446;3.698;2023-06-10T06:19:21;11.32;;;7.50;;
66256;SDS011;53049;43.446;3.698;2023-06-10T06:21:46;11.63;;;7.28;;
66256;SDS011;53049;43.446;3.698;2023-06-10T06:24:12;10.52;;;6.75;;
66256;SDS011;53049;43.446;3.698;2023-06-10T06:26:38;9.65;;;6.55;;
66256;SDS011;53049;43.446;3.698;2023-06-10T06:29:04;10.35;;;6.88;;
66256;SDS011;53049;43.446;3.698;2023-06-10T06:31:30;12.07;;;6.68;;
66256;SDS011;53049;43.446;3.698;2023-06-10T06:33:56;10.70;;;6.88;;
66256;SDS011;53049;43.446;3.698;2023-06-10T06:36:24;14.35;;;7.43;;
66256;SDS011;53049;43.446;3.698;2023-06-10T06:38:49;10.40;;;6.65;;
66256;SDS011;53049;43.446;3.698;2023-06-10T06:41:15;10.90;;;6.65;;
66256;SDS011;53049;43.446;3.698;2023-06-10T06:43:41;11.75;;;6.80;;
66256;SDS011;53049;43.446;3.698;2023-06-10T06:46:08;11.90;;;6.90;;
66256;SDS011;53049;43.446;3.698;2023-06-10T06:48:34;14.38;;;6.47;;
66256;SDS011;53049;43.446;3.698;2023-06-10T06:51:01;11.40;;;6.30;;
66256;SDS011;53049;43.446;3.698;2023-06-10T06:53:26;11.18;;;6.25;;
66256;SDS011;53049;43.446;3.698;2023-06-10T06:55:52;9.50;;;6.85;;
66256;SDS011;53049;43.446;3.698;2023-06-10T06:58:18;10.00;;;6.10;;
66256;SDS011;53049;43.446;3.698;2023-06-10T07:00:43;11.77;;;5.95;;
66256;SDS011;53049;43.446;3.698;2023-06-10T07:03:09;8.50;;;5.97;;
66256;SDS011;53049;43.446;3.698;2023-06-10T07:05:35;10.98;;;5.45;;
66256;SDS011;53049;43.446;3.698;2023-06-10T07:08:01;10.00;;;5.72;;
66256;SDS011;53049;43.446;3.698;2023-06-10T07:10:26;9.82;;;5.63;;
66256;SDS011;53049;43.446;3.698;2023-06-10T07:12:53;10.75;;;5.80;;
66256;SDS011;53049;43.446;3.698;2023-06-10T07:15:19;12.63;;;5.75;;
66256;SDS011;53049;43.446;3.698;2023-06-10T07:17:45;7.60;;;5.40;;
66256;SDS011;53049;43.446;3.698;2023-06-10T07:20:11;9.00;;;5.80;;
66256;SDS011;53049;43.446;3.698;2023-06-10T07:22:37;8.57;;;5.25;;
66256;SDS011;53049;43.446;3.698;2023-06-10T07:25:04;10.30;;;4.38;;
66256;SDS011;53049;43.446;3.698;2023-06-10T07:27:30;9.60;;;4.57;;
66256;SDS011;53049;43.446;3.698;2023-06-10T07:29:56;8.85;;;4.50;;
66256;SDS011;53049;43.446;3.698;2023-06-10T07:32:22;6.95;;;4.15;;
66256;SDS011;53049;43.446;3.698;2023-06-10T07:34:48;8.57;;;3.83;;
66256;SDS011;53049;43.446;3.698;2023-06-10T07:37:14;8.07;;;4.15;;
66256;SDS011;53049;43.446;3.698;2023-06-10T07:39:40;9.35;;;4.03;;
66256;SDS011;53049;43.446;3.698;2023-06-10T07:42:08;9.70;;;3.53;;
66256;SDS011;53049;43.446;3.698;2023-06-10T07:44:34;7.68;;;3.60;;
66256;SDS011;53049;43.446;3.698;2023-06-10T07:46:59;9.88;;;3.85;;
66256;SDS011;53049;43.446;3.698;2023-06-10T07:49:25;6.93;;;4.20;;
66256;SDS011;53049;43.446;3.698;2023-06-10T07:51:50;6.50;;;3.55;;
66256;SDS011;53049;43.446;3.698;2023-06-10T07:54:18;7.00;;;3.60;;
66256;SDS011;53049;43.446;3.698;2023-06-10T07:56:46;7.63;;;3.55;;
66256;SDS011;53049;43.446;3.698;2023-06-10T07:59:13;7.10;;;3.40;;
66256;SDS011;53049;43.446;3.698;2023-06-10T08:01:39;7.13;;;3.70;;
66256;SDS011;53049;43.446;3.698;2023-06-10T08:04:05;6.72;;;4.10;;
66256;SDS011;53049;43.446;3.698;2023-06-10T08:06:31;6.43;;;3.72;;
66256;SDS011;53049;43.446;3.698;2023-06-10T08:08:57;9.57;;;4.05;;
66256;SDS011;53049;43.446;3.698;2023-06-10T08:11:23;6.97;;;4.30;;
66256;SDS011;53049;43.446;3.698;2023-06-10T08:13:48;5.25;;;3.80;;
66256;SDS011;53049;43.446;3.698;2023-06-10T08:16:14;8.10;;;3.78;;
66256;SDS011;53049;43.446;3.698;2023-06-10T08:18:40;8.38;;;4.75;;
66256;SDS011;53049;43.446;3.698;2023-06-10T08:21:06;6.90;;;3.97;;
66256;SDS011;53049;43.446;3.698;2023-06-10T08:23:31;7.97;;;4.05;;
66256;SDS011;53049;43.446;3.698;2023-06-10T08:25:57;7.95;;;3.80;;
66256;SDS011;53049;43.446;3.698;2023-06-10T08:28:23;10.40;;;4.10;;
66256;SDS011;53049;43.446;3.698;2023-06-10T08:30:48;9.80;;;4.00;;
66256;SDS011;53049;43.446;3.698;2023-06-10T08:33:14;5.85;;;3.90;;
66256;SDS011;53049;43.446;3.698;2023-06-10T08:35:40;8.00;;;4.13;;
66256;SDS011;53049;43.446;3.698;2023-06-10T08:38:05;7.00;;;4.43;;
66256;SDS011;53049;43.446;3.698;2023-06-10T08:40:32;9.30;;;4.97;;
66256;SDS011;53049;43.446;3.698;2023-06-10T08:43:00;7.03;;;4.30;;
66256;SDS011;53049;43.446;3.698;2023-06-10T08:45:36;7.90;;;3.97;;
66256;SDS011;53049;43.446;3.698;2023-06-10T08:48:02;7.85;;;4.00;;
66256;SDS011;53049;43.446;3.698;2023-06-10T08:50:32;8.45;;;3.85;;
66256;SDS011;53049;43.446;3.698;2023-06-10T08:53:02;6.95;;;3.80;;
66256;SDS011;53049;43.446;3.698;2023-06-10T08:55:32;8.00;;;3.90;;
66256;SDS011;53049;43.446;3.698;2023-06-10T08:58:00;6.20;;;3.88;;
66256;SDS011;53049;43.446;3.698;2023-06-10T09:00:27;6.63;;;3.90;;
66256;SDS011;53049;43.446;3.698;2023-06-10T09:02:54;7.32;;;3.95;;
66256;SDS011;53049;43.446;3.698;2023-06-10T09:05:21;7.75;;;3.70;;
66256;SDS011;53049;43.446;3.698;2023-06-10T09:07:47;6.20;;;3.97;;
66256;SDS011;53049;43.446;3.698;2023-06-10T09:10:13;5.38;;;3.90;;
66256;SDS011;53049;43.446;3.698;2023-06-10T09:12:40;6.97;;;3.60;;
66256;SDS011;53049;43.446;3.698;2023-06-10T09:15:07;6.55;;;3.85;;
66256;SDS011;53049;43.446;3.698;2023-06-10T09:17:33;6.00;;;3.65;;
66256;SDS011;53049;43.446;3.698;2023-06-10T09:20:01;5.93;;;3.67;;
66256;SDS011;53049;43.446;3.698;2023-06-10T09:22:27;6.28;;;3.80;;
66256;SDS011;53049;43.446;3.698;2023-06-10T09:25:03;7.20;;;3.72;;
66256;SDS011;53049;43.446;3.698;2023-06-10T09:27:45;7.50;;;4.18;;
66256;SDS011;53049;43.446;3.698;2023-06-10T09:30:34;8.88;;;3.72;;
66256;SDS011;53049;43.446;3.698;2023-06-10T09:33:01;6.07;;;3.40;;
66256;SDS011;53049;43.446;3.698;2023-06-10T09:35:29;6.20;;;3.65;;
66256;SDS011;53049;43.446;3.698;2023-06-10T09:37:56;7.50;;;4.00;;
66256;SDS011;53049;43.446;3.698;2023-06-10T09:40:22;8.48;;;3.75;;
66256;SDS011;53049;43.446;3.698;2023-06-10T09:43:21;6.85;;;3.70;;
66256;SDS011;53049;43.446;3.698;2023-06-10T09:45:40;8.80;;;3.80;;
66256;SDS011;53049;43.446;3.698;2023-06-10T09:48:06;7.78;;;3.95;;
66256;SDS011;53049;43.446;3.698;2023-06-10T09:50:36;7.10;;;3.45;;
66256;SDS011;53049;43.446;3.698;2023-06-10T09:53:08;7.13;;;3.80;;
66256;SDS011;53049;43.446;3.698;2023-06-10T09:55:37;5.72;;;3.80;;
66256;SDS011;53049;43.446;3.698;2023-06-10T09:58:03;8.90;;;3.90;;
66256;SDS011;53049;43.446;3.698;2023-06-10T10:00:31;6.80;;;3.55;;
66256;SDS011;53049;43.446;3.698;2023-06-10T10:02:59;8.75;;;3.88;;
66256;SDS011;53049;43.446;3.698;2023-06-10T10:05:26;7.00;;;3.53;;
66256;SDS011;53049;43.446;3.698;2023-06-10T10:07:52;7.03;;;3.40;;
66256;SDS011;53049;43.446;3.698;2023-06-10T10:10:21;6.60;;;4.05;;
66256;SDS011;53049;43.446;3.698;2023-06-10T10:12:47;9.40;;;4.10;;
66256;SDS011;53049;43.446;3.698;2023-06-10T10:15:16;8.27;;;4.43;;
66256;SDS011;53049;43.446;3.698;2023-06-10T10:18:06;8.68;;;3.92;;
66256;SDS011;53049;43.446;3.698;2023-06-10T10:20:34;7.80;;;3.90;;
66256;SDS011;53049;43.446;3.698;2023-06-10T10:23:16;8.93;;;3.90;;
66256;SDS011;53049;43.446;3.698;2023-06-10T10:25:51;7.57;;;3.67;;
66256;SDS011;53049;43.446;3.698;2023-06-10T10:28:18;6.55;;;3.88;;
66256;SDS011;53049;43.446;3.698;2023-06-10T10:30:49;8.18;;;3.83;;
66256;SDS011;53049;43.446;3.698;2023-06-10T10:36:28;8.80;;;4.03;;
66256;SDS011;53049;43.446;3.698;2023-06-10T10:38:54;7.85;;;4.47;;
66256;SDS011;53049;43.446;3.698;2023-06-10T10:41:19;6.15;;;3.60;;
66256;SDS011;53049;43.446;3.698;2023-06-10T10:43:46;6.57;;;3.75;;
66256;SDS011;53049;43.446;3.698;2023-06-10T10:46:16;7.00;;;4.03;;
66256;SDS011;53049;43.446;3.698;2023-06-10T10:48:44;8.65;;;4.47;;
66256;SDS011;53049;43.446;3.698;2023-06-10T10:51:16;8.50;;;4.00;;
66256;SDS011;53049;43.446;3.698;2023-06-10T10:53:42;7.70;;;3.95;;
66256;SDS011;53049;43.446;3.698;2023-06-10T10:56:13;7.40;;;3.90;;
66256;SDS011;53049;43.446;3.698;2023-06-10T10:58:40;8.23;;;4.05;;
66256;SDS011;53049;43.446;3.698;2023-06-10T11:01:12;7.22;;;4.05;;
66256;SDS011;53049;43.446;3.698;2023-06-10T11:03:45;7.95;;;4.20;;
66256;SDS011;53049;43.446;3.698;2023-06-10T11:06:15;6.93;;;4.40;;
66256;SDS011;53049;43.446;3.698;2023-06-10T11:11:25;8.43;;;4.05;;
66256;SDS011;53049;43.446;3.698;2023-06-10T11:16:29;9.65;;;4.35;;
66256;SDS011;53049;43.446;3.698;2023-06-10T11:18:55;8.68;;;4.65;;
66256;SDS011;53049;43.446;3.698;2023-06-10T11:21:24;7.43;;;4.03;;
66256;SDS011;53049;43.446;3.698;2023-06-10T11:23:53;9.32;;;4.65;;
66256;SDS011;53049;43.446;3.698;2023-06-10T11:31:39;8.25;;;4.50;;
66256;SDS011;53049;43.446;3.698;2023-06-10T11:34:09;8.15;;;4.13;;
66256;SDS011;53049;43.446;3.698;2023-06-10T11:36:38;7.82;;;4.32;;
66256;SDS011;53049;43.446;3.698;2023-06-10T11:41:37;9.52;;;4.38;;
66256;SDS011;53049;43.446;3.698;2023-06-10T11:44:06;9.20;;;4.00;;
66256;SDS011;53049;43.446;3.698;2023-06-10T11:46:34;8.60;;;4.50;;
66256;SDS011;53049;43.446;3.698;2023-06-10T11:49:00;7.50;;;4.28;;
66256;SDS011;53049;43.446;3.698;2023-06-10T11:51:29;7.25;;;4.10;;
66256;SDS011;53049;43.446;3.698;2023-06-10T11:53:58;9.00;;;4.65;;
66256;SDS011;53049;43.446;3.698;2023-06-10T11:56:27;9.77;;;4.30;;
66256;SDS011;53049;43.446;3.698;2023-06-10T12:01:25;6.75;;;4.22;;
66256;SDS011;53049;43.446;3.698;2023-06-10T12:04:05;8.57;;;4.53;;
66256;SDS011;53049;43.446;3.698;2023-06-10T12:06:42;11.38;;;4.40;;
66256;SDS011;53049;43.446;3.698;2023-06-10T12:09:16;9.27;;;4.22;;
66256;SDS011;53049;43.446;3.698;2023-06-10T12:11:45;8.23;;;4.30;;
66256;SDS011;53049;43.446;3.698;2023-06-10T12:14:48;12.70;;;4.45;;
66256;SDS011;53049;43.446;3.698;2023-06-10T12:17:22;7.00;;;4.25;;
66256;SDS011;53049;43.446;3.698;2023-06-10T12:19:58;7.30;;;4.40;;
66256;SDS011;53049;43.446;3.698;2023-06-10T12:22:25;10.40;;;4.20;;
66256;SDS011;53049;43.446;3.698;2023-06-10T12:25:04;8.65;;;4.50;;
66256;SDS011;53049;43.446;3.698;2023-06-10T12:27:34;10.15;;;4.40;;
66256;SDS011;53049;43.446;3.698;2023-06-10T12:30:02;8.52;;;4.13;;
66256;SDS011;53049;43.446;3.698;2023-06-10T12:35:04;7.63;;;4.88;;
66256;SDS011;53049;43.446;3.698;2023-06-10T12:37:31;7.88;;;4.43;;
66256;SDS011;53049;43.446;3.698;2023-06-10T12:40:01;11.80;;;4.63;;
66256;SDS011;53049;43.446;3.698;2023-06-10T12:42:28;10.38;;;4.63;;
66256;SDS011;53049;43.446;3.698;2023-06-10T12:44:56;9.48;;;5.13;;
66256;SDS011;53049;43.446;3.698;2023-06-10T12:47:33;9.40;;;4.70;;
66256;SDS011;53049;43.446;3.698;2023-06-10T12:50:06;10.93;;;5.07;;
66256;SDS011;53049;43.446;3.698;2023-06-10T12:52:32;11.32;;;5.88;;
66256;SDS011;53049;43.446;3.698;2023-06-10T12:54:58;10.65;;;4.85;;
66256;SDS011;53049;43.446;3.698;2023-06-10T12:57:25;12.48;;;5.90;;
66256;SDS011;53049;43.446;3.698;2023-06-10T12:59:51;12.50;;;5.07;;
66256;SDS011;53049;43.446;3.698;2023-06-10T13:02:25;10.18;;;5.82;;
66256;SDS011;53049;43.446;3.698;2023-06-10T13:04:51;11.30;;;5.35;;
66256;SDS011;53049;43.446;3.698;2023-06-10T13:07:17;9.75;;;5.35;;
66256;SDS011;53049;43.446;3.698;2023-06-10T13:09:43;8.93;;;5.75;;
66256;SDS011;53049;43.446;3.698;2023-06-10T13:12:09;10.93;;;5.95;;
66256;SDS011;53049;43.446;3.698;2023-06-10T13:14:35;10.85;;;5.28;;
66256;SDS011;53049;43.446;3.698;2023-06-10T13:17:02;7.15;;;4.95;;
66256;SDS011;53049;43.446;3.698;2023-06-10T13:19:30;9.00;;;4.75;;
66256;SDS011;53049;43.446;3.698;2023-06-10T13:21:57;9.90;;;4.70;;
66256;SDS011;53049;43.446;3.698;2023-06-10T13:24:22;10.50;;;5.28;;
66256;SDS011;53049;43.446;3.698;2023-06-10T13:26:48;9.93;;;4.88;;
66256;SDS011;53049;43.446;3.698;2023-06-10T13:29:14;11.35;;;5.43;;
66256;SDS011;53049;43.446;3.698;2023-06-10T13:31:40;8.05;;;4.43;;
66256;SDS011;53049;43.446;3.698;2023-06-10T13:34:05;8.95;;;4.80;;
66256;SDS011;53049;43.446;3.698;2023-06-10T13:36:31;12.18;;;5.22;;
66256;SDS011;53049;43.446;3.698;2023-06-10T13:38:57;10.43;;;4.43;;
66256;SDS011;53049;43.446;3.698;2023-06-10T13:41:23;13.20;;;5.07;;
66256;SDS011;53049;43.446;3.698;2023-06-10T13:43:49;10.73;;;5.25;;
66256;SDS011;53049;43.446;3.698;2023-06-10T13:46:15;10.38;;;4.78;;
66256;SDS011;53049;43.446;3.698;2023-06-10T13:48:41;9.63;;;4.68;;
66256;SDS011;53049;43.446;3.698;2023-06-10T13:51:07;6.20;;;4.35;;
66256;SDS011;53049;43.446;3.698;2023-06-10T13:53:34;9.75;;;4.80;;
66256;SDS011;53049;43.446;3.698;2023-06-10T13:55:59;9.18;;;4.57;;
66256;SDS011;53049;43.446;3.698;2023-06-10T13:58:25;9.90;;;4.75;;
66256;SDS011;53049;43.446;3.698;2023-06-10T14:00:51;10.88;;;4.90;;
66256;SDS011;53049;43.446;3.698;2023-06-10T14:03:20;10.75;;;4.43;;
66256;SDS011;53049;43.446;3.698;2023-06-10T14:05:45;9.00;;;4.97;;
66256;SDS011;53049;43.446;3.698;2023-06-10T14:08:11;9.07;;;5.00;;
66256;SDS011;53049;43.446;3.698;2023-06-10T14:10:37;8.25;;;4.55;;
66256;SDS011;53049;43.446;3.698;2023-06-10T14:13:02;13.70;;;4.60;;
66256;SDS011;53049;43.446;3.698;2023-06-10T14:15:28;8.57;;;4.93;;
66256;SDS011;53049;43.446;3.698;2023-06-10T14:17:54;9.25;;;4.72;;
66256;SDS011;53049;43.446;3.698;2023-06-10T14:20:20;10.65;;;5.10;;
66256;SDS011;53049;43.446;3.698;2023-06-10T14:22:46;10.68;;;5.05;;
66256;SDS011;53049;43.446;3.698;2023-06-10T14:25:11;7.30;;;4.55;;
66256;SDS011;53049;43.446;3.698;2023-06-10T14:27:39;9.93;;;4.78;;
66256;SDS011;53049;43.446;3.698;2023-06-10T14:30:05;9.45;;;4.93;;
66256;SDS011;53049;43.446;3.698;2023-06-10T14:32:31;12.07;;;4.80;;
66256;SDS011;53049;43.446;3.698;2023-06-10T14:34:57;8.90;;;4.80;;
66256;SDS011;53049;43.446;3.698;2023-06-10T14:37:23;9.55;;;5.28;;
66256;SDS011;53049;43.446;3.698;2023-06-10T14:39:49;8.63;;;4.80;;
66256;SDS011;53049;43.446;3.698;2023-06-10T14:42:16;9.10;;;4.95;;
66256;SDS011;53049;43.446;3.698;2023-06-10T14:44:41;8.77;;;4.53;;
66256;SDS011;53049;43.446;3.698;2023-06-10T14:47:07;7.15;;;4.85;;
66256;SDS011;53049;43.446;3.698;2023-06-10T14:49:33;10.00;;;4.55;;
66256;SDS011;53049;43.446;3.698;2023-06-10T14:51:58;8.55;;;4.57;;
66256;SDS011;53049;43.446;3.698;2023-06-10T14:54:24;9.93;;;4.68;;
66256;SDS011;53049;43.446;3.698;2023-06-10T14:56:49;9.15;;;4.80;;
66256;SDS011;53049;43.446;3.698;2023-06-10T14:59:15;9.63;;;4.88;;